Goose Lake, Indiana
Current Conditions -  °F | °C
As of 10:54 AM on Thursday 23 Oct 2014 (Local Time) from KFWA Reporting Station
Haze Haze  
Wind Chill: 44°   Ceiling: 25000
Heat Index: 44°   Visibility: 6mi
Dew Point: 42°   Wind: 3mph
Humidity: 93%   Direction: 230°SW
Pressure: 30.27"   Gusts: NA
Location:  41.1479°N, 85.4772°W
Report Text: KFWA 231454Z 23003KT 6SM BR FEW003 BKN250 07/06 A3027 RMK AO2 SLP257 T00670056 52004
Loading
Personal Weather Stations






























Interactive Weather Map
Tropical Storm Tracking
New forecast layout! Learn more

10-Day Weather Forecast

Advertisements
Track Severe Weather on mobile